Time;durP1;ratioP1;P1;durP2;ratioP2;P2;SDS_P1;SDS_P2;PMS_P1;PMS_P2;Temp;Humidity;BMP_temperature;BMP_pressure;BME280_temperature;BME280_humidity;BME280_pressure;Samples;Min_cycle;Max_cycle;Signal;HPM_P1;HPM_P2
2022/07/15 00:01:43;;;;;;;6.50;3.70;;;;;;;18.34;63.46;98615.92;105589;1281;99233;-65
2022/07/15 00:04:12;;;;;;;8.70;3.80;;;;;;;18.33;63.61;98618.89;105838;1280;108560;-65
2022/07/15 00:06:42;;;;;;;6.20;3.50;;;;;;;18.30;63.49;98620.45;105755;1281;97956;-65
2022/07/15 00:09:12;;;;;;;8.50;3.90;;;;;;;18.28;63.54;98632.58;105684;1281;96656;-66
2022/07/15 00:11:40;;;;;;;9.30;3.90;;;;;;;18.26;63.69;98649.46;105752;1281;113443;-65
2022/07/15 00:14:11;;;;;;;10.90;4.30;;;;;;;18.23;63.77;98665.73;105853;1280;96718;-63
2022/07/15 00:16:39;;;;;;;12.20;4.20;;;;;;;18.22;63.76;98696.23;105767;1280;108313;-64
2022/07/15 00:19:08;;;;;;;8.30;4.30;;;;;;;18.19;63.82;98723.63;105884;1280;99345;-65
2022/07/15 00:21:38;;;;;;;6.60;3.80;;;;;;;18.17;63.99;98713.45;105872;1280;100360;-64
2022/07/15 00:24:05;;;;;;;6.90;4.20;;;;;;;18.17;64.10;98689.61;105815;1281;110467;-65
2022/07/15 00:26:36;;;;;;;9.10;4.20;;;;;;;18.15;64.18;98682.09;105929;1281;97973;-63
2022/07/15 00:29:05;;;;;;;9.40;4.40;;;;;;;18.14;63.95;98682.16;105787;1281;108258;-63
2022/07/15 00:31:33;;;;;;;9.30;4.70;;;;;;;18.12;64.16;98688.46;105799;1281;99349;-65
2022/07/15 00:34:03;;;;;;;7.70;3.90;;;;;;;18.10;64.38;98691.28;105848;1281;99238;-66
2022/07/15 00:36:33;;;;;;;8.30;4.30;;;;;;;18.09;64.17;98703.60;105838;1280;112729;-65
2022/07/15 00:39:00;;;;;;;7.20;4.20;;;;;;;18.08;64.26;98713.66;105752;1281;99329;-65
2022/07/15 00:41:36;;;;;;;9.00;4.60;;;;;;;18.07;64.27;98708.04;105850;1281;108623;-65
2022/07/15 00:44:06;;;;;;;7.90;4.30;;;;;;;18.07;64.56;98708.21;105826;1279;96722;-65
2022/07/15 00:46:37;;;;;;;11.00;4.80;;;;;;;18.08;64.56;98715.67;105905;1281;99173;-66
2022/07/15 00:49:09;;;;;;;8.80;3.90;;;;;;;18.08;64.50;98715.88;105909;1280;112658;-65
2022/07/15 00:51:44;;;;;;;9.70;4.30;;;;;;;18.06;64.59;98712.52;105930;1281;99339;-65
2022/07/15 00:54:15;;;;;;;10.40;5.40;;;;;;;18.05;64.52;98688.42;105880;1280;108064;-66
2022/07/15 00:56:52;;;;;;;9.50;4.80;;;;;;;18.02;64.43;98650.67;105792;1281;99290;-64
2022/07/15 00:59:25;;;;;;;7.90;4.40;;;;;;;17.91;64.25;98652.25;105691;1281;97743;-65
2022/07/15 01:01:53;;;;;;;11.80;4.90;;;;;;;17.79;63.99;98660.14;105768;1281;113587;-65
2022/07/15 01:04:26;;;;;;;12.20;4.90;;;;;;;17.68;64.39;98656.11;105849;1280;99783;-64
2022/07/15 01:06:55;;;;;;;12.50;5.60;;;;;;;17.62;64.46;98647.27;105902;1280;108753;-64
2022/07/15 01:09:23;;;;;;;9.60;4.40;;;;;;;17.57;64.53;98642.80;105877;1279;99421;-65
2022/07/15 01:11:55;;;;;;;10.70;4.80;;;;;;;17.51;64.53;98626.60;105879;1279;99240;-66
2022/07/15 01:14:23;;;;;;;10.20;5.00;;;;;;;17.44;64.83;98605.15;105880;1281;113166;-65
2022/07/15 01:16:52;;;;;;;7.50;4.10;;;;;;;17.36;64.62;98589.25;105902;1279;99194;-64
2022/07/15 01:19:21;;;;;;;9.60;4.70;;;;;;;17.32;64.84;98582.06;105846;1281;109058;-65
2022/07/15 01:21:51;;;;;;;11.70;5.80;;;;;;;17.27;64.94;98581.72;105829;1281;99504;-64
2022/07/15 01:24:19;;;;;;;11.10;5.10;;;;;;;17.23;65.14;98586.77;105905;1281;99311;-69
2022/07/15 01:26:49;;;;;;;10.10;5.40;;;;;;;17.22;65.67;98597.98;105867;1281;113368;-66
2022/07/15 01:29:18;;;;;;;12.60;5.90;;;;;;;17.23;65.77;98615.24;105760;1280;97222;-64
2022/07/15 01:31:48;;;;;;;10.30;4.70;;;;;;;17.26;65.96;98613.50;105743;1280;107333;-66
2022/07/15 01:34:19;;;;;;;9.60;5.20;;;;;;;17.31;65.85;98606.40;105797;1280;99361;-65
2022/07/15 01:36:48;;;;;;;12.10;5.40;;;;;;;17.32;65.85;98613.95;105742;1281;99239;-64
2022/07/15 01:39:16;;;;;;;12.50;5.40;;;;;;;17.32;65.80;98608.60;105818;1280;113531;-64
2022/07/15 01:42:08;;;;;;;10.90;5.30;;;;;;;17.30;65.95;98601.45;105919;1279;99265;-66
2022/07/15 01:44:38;;;;;;;12.10;5.60;;;;;;;17.28;65.76;98605.38;105816;1279;109076;-65
2022/07/15 01:47:08;;;;;;;13.30;5.90;;;;;;;17.26;65.64;98600.09;105843;1279;96649;-67
2022/07/15 01:49:38;;;;;;;10.20;5.50;;;;;;;17.22;65.78;98601.91;105887;1278;99244;-65
2022/07/15 01:52:09;;;;;;;11.60;6.00;;;;;;;17.20;66.04;98603.41;105857;1279;112856;-65
2022/07/15 01:54:39;;;;;;;13.40;6.40;;;;;;;17.21;66.41;98602.54;105804;1279;98354;-66
2022/07/15 01:57:06;;;;;;;10.30;6.10;;;;;;;17.23;66.53;98609.50;105845;1279;108206;-70
2022/07/15 01:59:37;;;;;;;10.70;5.90;;;;;;;17.27;66.70;98616.46;105922;1280;99244;-67
2022/07/15 02:02:09;;;;;;;12.90;6.40;;;;;;;17.30;66.51;98626.91;105854;1279;99317;-64
2022/07/15 02:04:37;;;;;;;12.30;5.90;;;;;;;17.32;66.42;98629.69;105977;1280;113853;-65
2022/07/15 02:07:10;;;;;;;14.00;6.00;;;;;;;17.34;66.71;98622.55;105861;1279;99346;-66
2022/07/15 02:09:38;;;;;;;12.70;5.80;;;;;;;17.36;66.75;98631.83;105840;1279;106625;-66
2022/07/15 02:12:08;;;;;;;10.20;5.40;;;;;;;17.38;66.82;98639.08;105822;1279;99339;-65
2022/07/15 02:14:37;;;;;;;11.00;5.40;;;;;;;17.39;67.01;98643.99;105778;1278;99527;-65
2022/07/15 02:17:09;;;;;;;8.50;5.00;;;;;;;17.41;66.92;98654.91;105948;1279;113106;-66
2022/07/15 02:19:41;;;;;;;9.60;5.10;;;;;;;17.41;66.97;98655.92;105852;1279;99255;-65
2022/07/15 02:22:09;;;;;;;9.50;4.90;;;;;;;17.41;67.01;98662.25;105913;1279;108249;-66
2022/07/15 02:24:42;;;;;;;8.00;4.60;;;;;;;17.42;66.90;98652.26;105901;1280;99274;-66
2022/07/15 02:27:09;;;;;;;10.90;4.60;;;;;;;17.41;66.97;98639.64;105910;1280;99288;-65
2022/07/15 02:29:38;;;;;;;10.70;4.40;;;;;;;17.41;67.09;98638.02;105834;1279;112319;-65
2022/07/15 02:32:08;;;;;;;9.80;4.30;;;;;;;17.41;67.06;98643.59;105926;1280;98989;-67
2022/07/15 02:34:38;;;;;;;8.30;3.90;;;;;;;17.42;67.01;98638.15;105806;1279;107792;-65
2022/07/15 02:37:08;;;;;;;8.60;4.30;;;;;;;17.41;66.96;98646.28;105649;1280;99221;-66
2022/07/15 02:39:42;;;;;;;10.40;4.20;;;;;;;17.40;67.06;98645.10;105823;1279;99358;-65
2022/07/15 02:42:11;;;;;;;9.30;3.90;;;;;;;17.40;67.01;98624.20;105923;1279;113422;-65
2022/07/15 02:44:38;;;;;;;7.30;3.80;;;;;;;17.39;66.97;98624.48;105888;1279;99268;-66
2022/07/15 02:47:08;;;;;;;7.20;4.10;;;;;;;17.35;67.07;98623.79;105785;1279;108346;-64
2022/07/15 02:49:36;;;;;;;7.30;3.90;;;;;;;17.35;67.33;98618.23;105772;1279;99210;-64
2022/07/15 02:52:06;;;;;;;6.40;3.80;;;;;;;17.35;67.17;98614.85;105868;1279;99313;-66
2022/07/15 02:54:34;;;;;;;6.30;3.80;;;;;;;17.34;67.19;98611.73;105915;1278;111983;-66
2022/07/15 02:57:02;;;;;;;9.90;3.90;;;;;;;17.32;67.21;98615.90;105798;1280;99295;-65
2022/07/15 02:59:30;;;;;;;8.60;3.90;;;;;;;17.32;67.18;98617.41;105852;1279;108323;-64
2022/07/15 03:01:58;;;;;;;8.90;4.00;;;;;;;17.32;67.40;98615.02;105854;1278;99250;-64
2022/07/15 03:04:27;;;;;;;6.50;3.90;;;;;;;17.33;67.18;98623.02;105908;1279;96718;-67
2022/07/15 03:06:55;;;;;;;7.20;3.90;;;;;;;17.32;67.26;98630.10;105836;1279;113385;-65
2022/07/15 03:09:23;;;;;;;6.80;3.90;;;;;;;17.31;67.43;98624.42;105893;1279;99240;-64
2022/07/15 03:11:51;;;;;;;6.30;3.90;;;;;;;17.32;67.19;98621.71;105864;1279;108404;-64
2022/07/15 03:14:19;;;;;;;5.70;3.60;;;;;;;17.30;67.41;98622.08;105863;1279;99282;-64
2022/07/15 03:16:47;;;;;;;6.10;3.90;;;;;;;17.28;67.35;98617.78;105870;1279;96619;-64
2022/07/15 03:19:15;;;;;;;7.30;4.00;;;;;;;17.27;67.44;98622.54;105859;1279;112851;-64
2022/07/15 03:21:43;;;;;;;7.30;3.80;;;;;;;17.26;67.49;98618.88;105851;1279;99271;-65
2022/07/15 03:24:13;;;;;;;7.80;3.70;;;;;;;17.25;67.42;98616.13;105840;1279;107455;-65
2022/07/15 03:26:41;;;;;;;6.60;3.30;;;;;;;17.21;67.31;98611.01;105834;1279;99377;-66
2022/07/15 03:29:10;;;;;;;9.40;4.00;;;;;;;17.16;67.40;98605.45;105869;1279;97927;-65
2022/07/15 03:31:38;;;;;;;6.00;3.60;;;;;;;17.17;67.58;98603.23;105898;1279;113080;-65
2022/07/15 03:34:06;;;;;;;6.20;3.90;;;;;;;17.18;67.75;98605.23;105974;1279;99234;-65
2022/07/15 03:36:34;;;;;;;6.10;3.30;;;;;;;17.19;67.75;98602.58;105867;1279;108317;-65
2022/07/15 03:39:04;;;;;;;8.00;3.80;;;;;;;17.20;67.68;98606.98;105877;1279;99196;-63
2022/07/15 03:41:34;;;;;;;8.30;4.00;;;;;;;17.20;67.64;98608.10;105852;1279;99120;-64
2022/07/15 03:44:02;;;;;;;7.30;3.60;;;;;;;17.20;67.66;98607.36;105821;1279;111351;-65
2022/07/15 03:46:30;;;;;;;6.40;3.80;;;;;;;17.21;67.60;98599.52;105792;1279;99237;-66
2022/07/15 03:49:00;;;;;;;7.90;3.80;;;;;;;17.21;67.70;98599.15;105296;1279;535378;-66
2022/07/15 03:51:30;;;;;;;6.00;3.50;;;;;;;17.23;67.81;98599.33;105776;1279;99248;-66
2022/07/15 03:54:03;;;;;;;5.10;3.50;;;;;;;17.24;67.69;98600.46;105851;1279;99304;-64
2022/07/15 03:56:31;;;;;;;8.20;3.50;;;;;;;17.24;67.77;98598.48;105812;1279;112652;-64
2022/07/15 03:58:59;;;;;;;8.70;3.70;;;;;;;17.24;67.99;98604.43;105824;1279;99355;-64
2022/07/15 04:01:27;;;;;;;5.20;3.20;;;;;;;17.25;67.92;98606.12;105781;1279;108377;-64
2022/07/15 04:03:56;;;;;;;7.20;3.60;;;;;;;17.27;67.96;98609.43;105756;1279;99231;-65
2022/07/15 04:06:26;;;;;;;7.80;3.60;;;;;;;17.29;67.97;98611.46;105847;1279;99103;-66
2022/07/15 04:08:54;;;;;;;12.00;3.80;;;;;;;17.30;67.89;98611.36;105754;1279;113168;-67
2022/07/15 04:11:23;;;;;;;6.20;3.60;;;;;;;17.30;67.72;98610.26;105861;1279;99364;-69
2022/07/15 04:13:51;;;;;;;6.30;3.50;;;;;;;17.30;67.95;98609.27;105831;1279;108402;-67
2022/07/15 04:16:19;;;;;;;6.30;3.20;;;;;;;17.32;67.92;98615.02;105811;1279;99391;-67
2022/07/15 04:18:51;;;;;;;5.20;3.60;;;;;;;17.34;67.89;98614.31;105846;1279;99262;-66
2022/07/15 04:21:20;;;;;;;9.00;3.30;;;;;;;17.35;68.14;98613.20;105798;1279;113368;-67
2022/07/15 04:23:48;;;;;;;6.60;3.20;;;;;;;17.38;68.06;98616.67;105809;1279;99244;-65
2022/07/15 04:26:16;;;;;;;8.80;3.30;;;;;;;17.42;68.09;98618.62;105727;1279;108335;-65
2022/07/15 04:28:44;;;;;;;9.30;3.60;;;;;;;17.45;68.15;98623.00;107430;1279;97266;-64
2022/07/15 04:31:12;;;;;;;5.40;3.30;;;;;;;17.47;67.91;98626.20;106059;1279;99355;-65
2022/07/15 04:33:40;;;;;;;6.50;3.20;;;;;;;17.48;67.99;98628.59;105745;1278;113516;-66
2022/07/15 04:36:08;;;;;;;5.90;3.10;;;;;;;17.49;67.95;98637.39;105928;1278;99200;-66
2022/07/15 04:38:36;;;;;;;7.80;3.60;;;;;;;17.50;68.04;98633.66;105847;1279;108415;-66
2022/07/15 04:41:04;;;;;;;4.20;3.10;;;;;;;17.51;68.08;98635.05;105838;1279;99214;-65
2022/07/15 04:43:32;;;;;;;8.30;3.50;;;;;;;17.53;68.14;98636.24;105872;1279;97670;-65
2022/07/15 04:45:59;;;;;;;5.70;3.30;;;;;;;17.57;68.14;98637.82;105856;1279;113187;-66
2022/07/15 04:51:17;;;;;;;6.80;3.30;;;;;;;17.62;68.33;98642.30;105780;1279;108402;-74
2022/07/15 04:53:45;;;;;;;8.30;3.90;;;;;;;17.66;68.30;98643.46;105668;1279;96650;-70
2022/07/15 04:56:13;;;;;;;8.30;3.50;;;;;;;17.70;68.43;98645.70;105612;1279;99428;-66
2022/07/15 04:58:42;;;;;;;8.50;3.60;;;;;;;17.72;68.34;98645.95;105563;1280;114015;-66
2022/07/15 05:01:10;;;;;;;5.90;3.40;;;;;;;17.74;68.30;98652.09;107506;1278;97135;-67
2022/07/15 05:03:38;;;;;;;10.00;4.10;;;;;;;17.77;68.19;98650.69;107465;1279;107433;-64
2022/07/15 05:06:06;;;;;;;9.60;4.10;;;;;;;17.79;68.31;98653.17;107463;1278;97327;-65
2022/07/15 05:08:34;;;;;;;7.30;3.70;;;;;;;17.77;68.27;98655.57;106653;1279;99242;-64
2022/07/15 05:11:03;;;;;;;10.30;4.10;;;;;;;17.73;68.35;98658.43;105630;1279;113832;-65
2022/07/15 05:13:31;;;;;;;8.60;3.90;;;;;;;17.70;68.30;98659.11;105586;1279;99107;-65
2022/07/15 05:15:59;;;;;;;10.80;4.40;;;;;;;17.71;68.44;98664.09;105644;1279;108799;-66
2022/07/15 05:18:27;;;;;;;7.90;4.00;;;;;;;17.71;68.50;98666.34;105971;1279;99214;-67
2022/07/15 05:20:56;;;;;;;8.30;4.30;;;;;;;17.71;68.22;98667.79;105625;1279;97517;-68
2022/07/15 05:23:23;;;;;;;10.40;4.80;;;;;;;17.73;68.36;98675.22;105848;1279;113340;-66
2022/07/15 05:25:51;;;;;;;12.50;5.10;;;;;;;17.74;68.50;98676.98;105975;1279;99237;-65
2022/07/15 05:28:20;;;;;;;12.90;5.50;;;;;;;17.74;68.57;98680.78;105934;1279;108256;-67
2022/07/15 05:30:49;;;;;;;13.90;5.70;;;;;;;17.77;68.65;98684.94;105747;1279;99991;-65
2022/07/15 05:33:18;;;;;;;13.60;6.10;;;;;;;17.78;68.67;98690.50;105845;1279;96650;-65
2022/07/15 05:35:46;;;;;;;16.50;7.00;;;;;;;17.80;68.57;98694.61;105847;1279;112685;-64
2022/07/15 05:38:20;;;;;;;15.00;7.10;;;;;;;17.83;68.72;98697.01;105869;1279;99358;-64
2022/07/15 05:40:49;;;;;;;15.10;7.80;;;;;;;17.87;68.74;98702.86;105864;1279;108475;-66
2022/07/15 05:43:17;;;;;;;20.80;8.70;;;;;;;17.94;68.62;98700.80;105866;1279;99418;-65
2022/07/15 05:45:45;;;;;;;17.50;8.80;;;;;;;17.98;68.73;98705.39;105880;1279;99246;-65
2022/07/15 05:48:13;;;;;;;20.60;9.10;;;;;;;17.98;68.56;98707.05;105863;1279;111326;-64
2022/07/15 05:50:41;;;;;;;18.60;9.50;;;;;;;17.98;68.75;98712.05;105840;1279;99301;-64
2022/07/15 05:53:08;;;;;;;18.20;9.50;;;;;;;17.97;68.67;98710.89;105843;1279;108261;-65
2022/07/15 05:55:36;;;;;;;19.10;9.00;;;;;;;17.98;68.80;98717.49;105853;1279;99282;-66
2022/07/15 05:58:09;;;;;;;20.40;10.30;;;;;;;17.97;68.90;98720.08;105951;1279;99224;-66
2022/07/15 06:00:39;;;;;;;20.20;10.30;;;;;;;17.99;68.81;98721.69;105942;1279;113812;-67
2022/07/15 06:03:07;;;;;;;20.40;11.20;;;;;;;18.02;68.88;98721.33;105841;1279;96623;-66
2022/07/15 06:05:42;;;;;;;18.50;11.00;;;;;;;18.06;69.03;98721.11;105856;1279;109194;-69
2022/07/15 06:08:10;;;;;;;19.20;10.80;;;;;;;18.10;68.96;98723.95;105895;1279;96648;-67
2022/07/15 06:10:39;;;;;;;19.50;11.50;;;;;;;18.13;68.81;98726.23;105888;1279;99273;-66
2022/07/15 06:13:07;;;;;;;21.90;11.90;;;;;;;18.19;68.90;98728.50;105870;1279;113397;-65
2022/07/15 06:15:36;;;;;;;21.80;12.00;;;;;;;18.23;68.87;98734.00;105877;1279;99400;-65
2022/07/15 06:18:05;;;;;;;21.90;12.30;;;;;;;18.25;68.88;98732.85;105861;1279;108349;-64
2022/07/15 06:20:33;;;;;;;21.00;12.40;;;;;;;18.28;68.84;98733.42;105904;1277;99195;-65
2022/07/15 06:23:02;;;;;;;22.30;13.50;;;;;;;18.35;68.86;98737.13;105863;1279;99371;-65
2022/07/15 06:25:30;;;;;;;20.90;12.00;;;;;;;18.41;68.88;98736.27;105855;1279;113508;-63
2022/07/15 06:27:58;;;;;;;20.70;12.70;;;;;;;18.49;68.92;98745.61;105865;1279;99943;-64
2022/07/15 06:30:26;;;;;;;19.50;12.70;;;;;;;18.55;69.10;98743.75;105855;1279;108337;-64
2022/07/15 06:32:54;;;;;;;19.80;12.60;;;;;;;18.62;68.99;98749.59;105845;1277;96710;-65
2022/07/15 06:35:23;;;;;;;21.60;12.10;;;;;;;18.80;68.82;98755.31;105847;1279;99241;-65
2022/07/15 06:37:51;;;;;;;20.30;12.90;;;;;;;18.99;68.73;98758.14;105831;1279;113287;-65
2022/07/15 06:40:19;;;;;;;24.00;12.80;;;;;;;19.06;69.02;98761.09;105971;1279;99252;-68
2022/07/15 06:42:47;;;;;;;19.50;11.70;;;;;;;19.13;69.12;98770.94;105943;1279;107780;-65
2022/07/15 06:45:16;;;;;;;21.20;12.30;;;;;;;19.18;69.12;98775.36;105942;1279;99323;-66
2022/07/15 06:47:44;;;;;;;22.60;12.60;;;;;;;19.20;69.07;98777.80;105936;1279;99206;-66
2022/07/15 06:50:12;;;;;;;18.00;10.50;;;;;;;19.21;69.08;98780.97;105848;1279;113351;-69
2022/07/15 06:52:41;;;;;;;18.00;10.80;;;;;;;19.23;69.05;98784.77;105833;1279;99356;-66
2022/07/15 06:55:11;;;;;;;20.30;10.20;;;;;;;19.26;69.06;98790.16;105850;1279;108214;-67
2022/07/15 06:57:41;;;;;;;21.10;10.90;;;;;;;19.29;69.00;98788.64;105944;1279;99914;-66
2022/07/15 07:00:11;;;;;;;20.10;10.70;;;;;;;19.36;68.95;98795.34;105871;1279;99244;-66
2022/07/15 07:02:42;;;;;;;21.40;10.70;;;;;;;19.39;68.98;98796.98;105856;1279;112543;-68
2022/07/15 07:05:15;;;;;;;;;;;;;;;19.49;68.90;98800.64;105840;1279;99242;-67
2022/07/15 07:07:43;;;;;;;19.60;9.90;;;;;;;19.69;68.82;98804.53;105879;1279;107870;-65
2022/07/15 07:10:12;;;;;;;19.00;9.60;;;;;;;19.79;68.72;98805.14;105745;1279;99336;-67
2022/07/15 07:12:42;;;;;;;18.60;8.70;;;;;;;20.09;68.66;98811.83;105839;1279;99375;-65
2022/07/15 07:15:10;;;;;;;17.30;9.00;;;;;;;20.38;68.60;98813.26;105936;1279;113703;-65
2022/07/15 07:17:38;;;;;;;17.60;8.50;;;;;;;20.59;68.54;98814.93;105890;1279;96601;-66
2022/07/15 07:20:07;;;;;;;15.30;8.30;;;;;;;20.51;68.43;98816.79;105837;1279;108378;-66
2022/07/15 07:22:35;;;;;;;18.70;8.20;;;;;;;20.36;68.37;98823.20;105871;1279;99232;-66
2022/07/15 07:25:06;;;;;;;14.50;6.70;;;;;;;21.01;67.35;98829.55;105849;1279;99231;-66
2022/07/15 07:27:35;;;;;;;15.70;6.30;;;;;;;22.02;66.46;98833.45;105869;1279;113664;-66
2022/07/15 07:30:05;;;;;;;15.30;5.70;;;;;;;22.97;66.16;98829.31;105909;1279;99301;-66
2022/07/15 07:32:35;;;;;;;15.00;6.40;;;;;;;23.97;66.02;98829.52;105847;1279;107816;-66
2022/07/15 07:35:08;;;;;;;14.70;6.70;;;;;;;24.53;66.54;98833.36;105869;1279;99333;-66
2022/07/15 07:37:38;;;;;;;12.10;5.00;;;;;;;25.25;65.99;98837.84;105846;1279;99320;-67
2022/07/15 07:40:09;;;;;;;12.40;5.80;;;;;;;25.76;65.74;98835.52;105900;1279;112865;-65
2022/07/15 07:42:40;;;;;;;15.50;4.60;;;;;;;26.13;65.05;98836.88;105861;1279;99333;-66
2022/07/15 07:45:10;;;;;;;10.00;4.00;;;;;;;26.49;65.35;98840.68;105853;1279;108387;-65
2022/07/15 07:47:40;;;;;;;12.50;3.70;;;;;;;26.39;65.60;98844.44;105879;1279;99195;-65
2022/07/15 07:50:10;;;;;;;7.90;3.90;;;;;;;25.93;65.53;98852.54;105794;1279;99230;-65
2022/07/15 07:52:38;;;;;;;10.70;3.60;;;;;;;26.25;64.71;98857.70;105792;1279;114042;-65
2022/07/15 07:55:10;;;;;;;12.10;4.00;;;;;;;26.26;64.72;98861.58;105928;1279;98357;-66
2022/07/15 07:57:51;;;;;;;10.60;4.50;;;;;;;26.76;63.88;98864.95;105926;1279;107133;-65
2022/07/15 08:00:21;;;;;;;8.00;3.30;;;;;;;26.99;63.43;98862.66;105891;1279;97722;-66
2022/07/15 08:02:50;;;;;;;10.20;3.30;;;;;;;27.82;62.23;98863.67;105873;1279;99340;-66
2022/07/15 08:05:20;;;;;;;6.20;2.80;;;;;;;28.61;62.01;98863.34;105878;1279;113186;-65
2022/07/15 08:08:15;;;;;;;11.10;4.10;;;;;;;29.24;61.52;98863.98;105748;1279;99314;-67
2022/07/15 08:10:48;;;;;;;5.60;2.70;;;;;;;30.19;61.29;98867.11;105684;1280;108421;-66
2022/07/15 08:13:19;;;;;;;9.00;2.90;;;;;;;30.95;61.09;98870.65;105847;1279;99740;-68
2022/07/15 08:15:50;;;;;;;9.00;2.70;;;;;;;31.63;60.85;98875.04;105868;1279;99232;-67
2022/07/15 08:18:28;;;;;;;5.80;2.10;;;;;;;32.21;60.14;98874.46;105691;1279;115917;-64
2022/07/15 08:20:56;;;;;;;7.20;2.00;;;;;;;32.58;59.68;98881.23;105864;1279;99772;-65
2022/07/15 08:23:26;;;;;;;8.90;2.00;;;;;;;32.84;59.36;98886.30;105833;1278;108445;-67
2022/07/15 08:25:55;;;;;;;5.80;2.20;;;;;;;32.64;58.12;98883.21;105946;1279;97930;-65
2022/07/15 08:28:26;;;;;;;6.40;2.10;;;;;;;32.54;57.83;98885.83;105903;1279;99320;-66
2022/07/15 08:31:14;;;;;;;6.70;2.10;;;;;;;32.78;57.33;98890.98;105862;1279;113675;-66
2022/07/15 08:33:43;;;;;;;7.70;2.30;;;;;;;33.00;56.32;98882.14;105865;1279;99820;-65
2022/07/15 08:36:13;;;;;;;6.00;1.90;;;;;;;33.03;56.25;98883.05;105881;1279;108755;-65
2022/07/15 08:38:43;;;;;;;4.60;1.80;;;;;;;32.84;56.15;98888.29;105871;1279;97913;-66
2022/07/15 08:41:16;;;;;;;6.50;2.50;;;;;;;32.39;55.95;98895.58;105837;1279;99214;-66
2022/07/15 08:43:46;;;;;;;;;;;;;;;32.26;55.57;98895.82;105791;1278;112791;-68
2022/07/15 08:46:16;;;;;;;6.20;1.60;;;;;;;31.65;54.79;98906.02;105938;1279;100279;-67
2022/07/15 08:48:54;;;;;;;7.30;2.20;;;;;;;31.45;53.90;98904.95;105947;1279;108382;-66
2022/07/15 08:51:24;;;;;;;5.90;1.90;;;;;;;31.06;53.89;98907.52;105967;1279;99696;-65
2022/07/15 08:53:55;;;;;;;6.60;2.20;;;;;;;30.83;53.60;98911.46;105890;1279;98339;-66
2022/07/15 08:56:27;;;;;;;6.80;1.80;;;;;;;30.42;52.74;98915.45;105894;1279;114211;-65
2022/07/15 08:58:57;;;;;;;6.70;1.80;;;;;;;30.53;51.83;98917.41;105828;1279;99848;-65
2022/07/15 09:01:31;;;;;;;8.00;1.90;;;;;;;30.60;50.94;98912.29;105897;1279;107868;-66
2022/07/15 09:04:02;;;;;;;5.40;1.90;;;;;;;30.26;51.12;98915.15;105805;1279;99329;-67
2022/07/15 09:06:40;;;;;;;5.80;2.00;;;;;;;30.07;50.44;98919.52;105842;1279;99409;-66
2022/07/15 09:09:37;;;;;;;7.00;2.20;;;;;;;30.05;49.86;98920.83;105900;1279;113234;-66
2022/07/15 09:12:58;;;;;;;8.80;2.10;;;;;;;30.07;49.31;98924.17;105856;1279;99745;-66
2022/07/15 12:27:33;;;;;;;5.70;1.70;;;;;;;22.70;40.52;98967.08;106264;1267;112167;-71
2022/07/15 12:30:09;;;;;;;5.40;1.90;;;;;;;22.62;40.54;98969.27;105986;1274;99325;-71
2022/07/15 12:32:38;;;;;;;4.00;1.90;;;;;;;22.61;40.66;98974.43;105997;1277;107535;-69
2022/07/15 12:35:07;;;;;;;4.80;2.10;;;;;;;22.60;40.60;98977.53;105968;1277;99217;-69
2022/07/15 12:37:35;;;;;;;3.30;1.60;;;;;;;22.58;40.70;98976.06;105915;1276;99226;-68
2022/07/15 12:40:09;;;;;;;7.10;2.50;;;;;;;22.61;40.41;98983.00;105979;1277;113213;-67
2022/07/15 12:42:40;;;;;;;6.40;1.80;;;;;;;22.57;40.46;98976.02;105858;1276;99190;-68
2022/07/15 12:45:15;;;;;;;12.70;2.60;;;;;;;22.55;40.37;98977.08;105971;1277;108359;-68
2022/07/15 12:47:57;;;;;;;7.80;2.40;;;;;;;22.50;40.43;98978.58;106125;1277;100308;-68
2022/07/15 12:50:26;;;;;;;6.30;1.80;;;;;;;22.44;40.37;98977.67;106089;1277;99307;-68
2022/07/15 12:52:55;;;;;;;7.20;2.10;;;;;;;22.44;40.46;98984.15;106111;1277;112753;-69
2022/07/15 12:55:28;;;;;;;4.80;2.10;;;;;;;22.41;40.53;98979.77;106083;1277;98015;-68
2022/07/15 12:58:11;;;;;;;7.60;2.10;;;;;;;22.42;40.62;98977.14;106001;1277;108390;-70
2022/07/15 13:00:40;;;;;;;5.70;2.00;;;;;;;22.44;40.56;98976.73;106065;1277;99329;-70
2022/07/15 13:03:17;;;;;;;9.10;2.40;;;;;;;22.44;40.67;98984.11;106088;1277;99315;-70
2022/07/15 13:05:54;;;;;;;11.50;2.50;;;;;;;22.43;40.38;98979.42;106106;1277;112911;-70
2022/07/15 13:08:28;;;;;;;7.90;2.50;;;;;;;22.42;40.74;98979.65;106144;1277;99234;-71
2022/07/15 13:10:59;;;;;;;6.20;2.10;;;;;;;22.42;40.43;98977.65;105899;1277;106689;-71
2022/07/15 13:13:30;;;;;;;5.70;2.20;;;;;;;22.45;40.70;98976.27;105994;1276;99324;-71
2022/07/15 13:15:59;;;;;;;6.70;2.10;;;;;;;22.51;40.76;98978.31;105913;1276;99213;-72
2022/07/15 13:18:27;;;;;;;7.60;2.00;;;;;;;22.57;40.61;98976.49;105922;1277;112923;-71
2022/07/15 13:20:57;;;;;;;8.00;2.30;;;;;;;22.58;40.40;98975.52;106120;1274;96646;-71
2022/07/15 13:23:26;;;;;;;5.70;2.00;;;;;;;22.63;40.84;98983.98;105997;1277;107752;-70
2022/07/15 13:25:54;;;;;;;4.90;1.90;;;;;;;22.63;40.67;98986.73;106069;1277;99216;-69
2022/07/15 13:28:23;;;;;;;5.00;2.30;;;;;;;22.59;40.68;98990.80;105949;1277;96690;-70
2022/07/15 13:30:52;;;;;;;8.20;2.70;;;;;;;22.60;40.87;98992.71;106022;1276;111673;-70
2022/07/15 13:33:22;;;;;;;11.30;2.40;;;;;;;22.61;40.65;98985.55;105895;1277;99198;-70
2022/07/15 13:35:50;;;;;;;7.60;2.70;;;;;;;22.64;40.99;98980.20;106047;1276;107759;-70
2022/07/15 13:38:18;;;;;;;6.40;2.10;;;;;;;22.70;40.74;98988.49;106031;1276;99249;-70
2022/07/15 13:40:46;;;;;;;8.40;2.40;;;;;;;22.71;40.70;98990.80;106046;1277;97504;-71
2022/07/15 13:43:13;;;;;;;4.60;2.10;;;;;;;22.68;40.73;98987.64;106023;1277;113344;-71
2022/07/15 13:45:41;;;;;;;7.40;2.40;;;;;;;22.66;40.71;98982.52;106002;1277;99344;-70
2022/07/15 13:48:14;;;;;;;5.20;2.30;;;;;;;22.64;40.67;98986.24;105921;1277;107713;-72
2022/07/15 13:53:29;;;;;;;7.80;2.00;;;;;;;22.64;40.43;98984.95;106092;1277;99262;-73
2022/07/15 13:55:59;;;;;;;5.90;2.20;;;;;;;22.65;40.30;98986.86;106015;1276;112949;-72
2022/07/15 13:58:27;;;;;;;7.70;2.40;;;;;;;22.61;40.48;98988.39;105917;1276;99234;-72
2022/07/15 14:00:55;;;;;;;6.30;2.50;;;;;;;22.61;40.56;98990.73;106036;1276;107857;-72
2022/07/15 14:03:23;;;;;;;7.40;1.90;;;;;;;22.57;40.42;98993.39;106010;1276;99348;-72
2022/07/15 14:05:51;;;;;;;5.10;1.60;;;;;;;22.50;40.32;98994.98;106080;1277;99232;-70
2022/07/15 14:08:19;;;;;;;6.80;2.40;;;;;;;22.46;40.09;98990.98;106096;1276;112793;-72
2022/07/15 14:10:47;;;;;;;8.10;2.30;;;;;;;22.43;40.06;98987.73;106045;1277;99277;-74
2022/07/15 14:13:15;;;;;;;3.00;1.70;;;;;;;22.42;40.39;98988.16;106014;1277;107908;-72
2022/07/15 14:15:42;;;;;;;7.40;2.30;;;;;;;22.42;40.44;98990.36;106013;1277;99296;-76
2022/07/15 14:18:10;;;;;;;5.00;2.00;;;;;;;22.44;40.43;98990.11;105990;1277;99309;-73
2022/07/15 14:20:41;;;;;;;5.90;2.30;;;;;;;22.46;40.32;98991.88;106114;1277;112790;-65
2022/07/15 14:23:09;;;;;;;4.60;1.80;;;;;;;22.48;40.22;98987.83;105898;1276;97798;-65
2022/07/15 14:25:37;;;;;;;4.00;1.90;;;;;;;22.54;40.34;98989.77;105710;1277;108600;-66
2022/07/15 14:28:05;;;;;;;5.00;1.80;;;;;;;22.62;40.27;99001.08;105869;1277;99319;-66
2022/07/15 14:30:33;;;;;;;5.80;2.20;;;;;;;22.67;40.19;98995.38;105918;1276;99192;-66
2022/07/15 14:33:01;;;;;;;6.70;2.20;;;;;;;22.73;40.31;98994.98;105976;1277;112724;-65
2022/07/15 14:35:29;;;;;;;4.40;1.70;;;;;;;22.81;40.11;98997.95;105960;1277;96652;-63
2022/07/15 14:37:57;;;;;;;4.90;2.10;;;;;;;22.86;40.30;98989.64;105895;1277;109302;-65
2022/07/15 14:40:25;;;;;;;3.40;1.70;;;;;;;22.92;40.20;98994.48;105851;1277;97806;-65
2022/07/15 14:42:53;;;;;;;4.20;2.10;;;;;;;22.95;40.33;98994.20;105869;1276;96530;-66
2022/07/15 14:45:21;;;;;;;6.00;2.00;;;;;;;22.91;39.81;98994.08;105967;1277;113144;-64
2022/07/15 14:47:49;;;;;;;2.50;1.60;;;;;;;22.86;40.00;98993.10;105995;1277;99524;-66
2022/07/15 14:50:17;;;;;;;4.80;1.80;;;;;;;22.82;39.91;98992.77;105930;1277;108678;-65